Redwood City, CA (94064)

10:38 PM PDT on September 16, 2014 (GMT -0700)
Canyon Rd. Redwood City, CA | Change Station
CLOSE
Current Station
Personal Weather Station
Location: Redwood City, CA
Elevation: 128 ft
Nearby Weather Stations

Elev 128 ft 37.47 °N, 122.26 °W | Updated 47 days ago

Mostly Cloudy
Mostly Cloudy
63 °F
Feels Like 63 °F
N
5
Wind Variable Wind from West
Gusts 7 mph

Today
High -- | Low -- °F
--% Chance of Precip.
Yesterday
High -- | Low -- °F
Precip. -- in
6:51 AM 7:15 PM
Last Quarter, 39% visible
Pressure 29.84 in
Visibility 10.0 miles
Clouds Clear
Dew Point 57 °F
Humidity 80%
Rainfall 0.00 in
Snow Depth 0 in , 0 in , 0 in
UV 0 out of 12
Pollen 5.20 out of 12
Ozone Good
PM2.5 Good
Flu Activity Not available.
METAR KSQL 170530Z AUTO 31008KT 10SM CLR 18/14 A2984 RMK AO2

More Conditions Fewer Conditions

Pressure 29.84 in
Visibility 10.0 miles
Clouds Clear
Dew Point 57 °F
Humidity 80%
Rainfall 0.00 in
Snow Depth 0 in , 0 in , 0 in
UV 0 out of 12
Pollen 5.20 out of 12
Ozone Good
PM2.5 Good
Flu Activity Not available.
METAR KSQL 170530Z AUTO 31008KT 10SM CLR 18/14 A2984 RMK AO2

More Conditions Fewer Conditions

10-Day Weather Forecast

Almanac

Astronomy

Sep. 16, 2014 Rise Set
Actual Time 6:51 AM PDT 7:15 PM PDT
Civil Twilight 6:25 AM PDT 7:41 PM PDT
Nautical Twilight 5:54 AM PDT 8:11 PM PDT
Astronomical Twilight 5:23 AM PDT 8:43 PM PDT
Moon 12:11 AM PDT (9/16) 2:38 PM PDT (9/16)
Length of Visible Light 13h 15m
Length of Day
12h 23m
Tomorrow will be 2m 22s shorter.
Last Quarter, 39% of the Moon is Illuminated
Sep 17
Last Quarter
Sep 24
New
Oct 1
First Quarter
Oct 8
Full
Oct 15
Last Quarter

Yesterday's Extremes

State Highs State Lows

Community

WunderPhotos

Upload Photos

1,753,968 photos uploaded!

Nearby

Air Quality

  Air Quality AQ Index Pollutant
Yesterday Good
PM2.5
Yesterday Good
OZONE
Current Good
PM2.5
Current Good
OZONE
Tuesday Good
PM2.5
Wednesday Good
OZONE
Thursday Good
OZONE
Friday Good
OZONE
Saturday Good
OZONE
Sunday Good
OZONE

Snow Depth

Station Depth Elevation
Forestdale Creek 0 in 8029 ft
Tahoe City Cross 0 in 6750 ft
Rubicon #2 0 in 7500 ft
Echo Peak 0 in 7800 ft
Summit Meadow 0 in 9122 ft

Earthquake Activity

City Distance Mag. Time & Date
Cobb, California 95 miles 2.7 1:23 PM PDT
2014-09-16
Cobb, California 98 miles 2.7 11:07 AM PDT
2014-09-14
Minimum magnitude displayed is 2.5.

Coastal Water Temperatures

Place Temperature
No Stations Reporting

Nearby Weather Stations